LNDTR SLTJ-SPZO
Flight info
| Callsign | LNDTR |
|---|---|
| Flight time | 1h 34m |
| Altitude | 38000 |
| Route | SINIT UW6 PAZ UM657 JUL UV11 ILMOX |
| Aircraft | C750/M-SBDE3FGHIJ3RWXYZ/SB1 |
Departure
| Time | 2026-05-01 10:35 |
|---|---|
| Airport | Capitan Oriel Lea Plaza Airport (SLTJ) |
Arrival
| Time | 2026-05-01 12:09 |
|---|---|
| Airport | Alejandro Velasco Astete International Airport (SPZO) |
| Time | Latitude | Longitude | Altitude | Speed | Heading |
|---|---|---|---|---|---|
| 2026-05-01 10:22 | -21.54771 | -64.70958 | 6097 ft | 0 kts | 197° |
| 2026-05-01 10:33 | -21.54796 | -64.71007 | 6092 ft | 8 kts | 258° |
| 2026-05-01 10:33 | -21.54825 | -64.71168 | 6097 ft | 10 kts | 259° |
| 2026-05-01 10:34 | -21.54857 | -64.71207 | 6100 ft | 6 kts | 181° |
| 2026-05-01 10:34 | -21.54872 | -64.71193 | 6100 ft | 0 kts | 123° |
| 2026-05-01 10:34 | -21.54896 | -64.71155 | 6095 ft | 32 kts | 123° |
| 2026-05-01 10:35 | -21.55826 | -64.69705 | 6281 ft | 161 kts | 124° |
| 2026-05-01 10:35 | -21.56484 | -64.68685 | 6899 ft | 170 kts | 124° |
| 2026-05-01 10:35 | -21.57176 | -64.67584 | 7483 ft | 191 kts | 123° |
| 2026-05-01 10:35 | -21.57960 | -64.66351 | 8127 ft | 201 kts | 123° |
| 2026-05-01 10:36 | -21.59583 | -64.63810 | 9625 ft | 211 kts | 124° |
| 2026-05-01 10:36 | -21.60417 | -64.62495 | 10360 ft | 215 kts | 124° |
| 2026-05-01 10:36 | -21.61268 | -64.61157 | 11061 ft | 218 kts | 124° |
| 2026-05-01 10:37 | -21.62316 | -64.60000 | 11626 ft | 225 kts | 155° |
| 2026-05-01 10:37 | -21.65072 | -64.60736 | 13089 ft | 214 kts | 230° |
| 2026-05-01 10:37 | -21.65721 | -64.62146 | 13812 ft | 212 kts | 261° |
| 2026-05-01 10:38 | -21.65620 | -64.63718 | 14482 ft | 212 kts | 284° |
| 2026-05-01 10:38 | -21.65242 | -64.65255 | 15146 ft | 214 kts | 285° |
| 2026-05-01 10:38 | -21.64861 | -64.66810 | 15817 ft | 216 kts | 285° |
| 2026-05-01 10:38 | -21.64158 | -64.68243 | 16374 ft | 223 kts | 314° |
| 2026-05-01 10:39 | -21.62837 | -64.69101 | 17077 ft | 226 kts | 340° |
| 2026-05-01 10:39 | -21.61306 | -64.69517 | 17796 ft | 227 kts | 344° |
| 2026-05-01 10:39 | -21.59778 | -64.69912 | 18483 ft | 230 kts | 343° |
| 2026-05-01 10:39 | -21.58218 | -64.70329 | 19117 ft | 232 kts | 343° |
| 2026-05-01 10:40 | -21.56647 | -64.70750 | 19791 ft | 233 kts | 343° |
| 2026-05-01 10:40 | -21.55072 | -64.71177 | 20458 ft | 234 kts | 341° |
| 2026-05-01 10:40 | -21.53614 | -64.71980 | 20905 ft | 244 kts | 324° |
| 2026-05-01 10:40 | -21.52146 | -64.73050 | 21172 ft | 265 kts | 324° |
| 2026-05-01 10:41 | -21.50546 | -64.74183 | 21456 ft | 286 kts | 325° |
| 2026-05-01 10:41 | -21.48819 | -64.75382 | 21768 ft | 305 kts | 325° |
| 2026-05-01 10:41 | -21.45076 | -64.78004 | 22539 ft | 335 kts | 325° |
| 2026-05-01 10:42 | -21.43088 | -64.79399 | 22953 ft | 348 kts | 325° |
| 2026-05-01 10:42 | -21.41021 | -64.80846 | 23368 ft | 360 kts | 325° |
| 2026-05-01 10:42 | -21.38884 | -64.82340 | 23753 ft | 372 kts | 325° |
| 2026-05-01 10:42 | -21.36689 | -64.83877 | 24091 ft | 382 kts | 325° |
| 2026-05-01 10:43 | -21.34428 | -64.85460 | 24430 ft | 392 kts | 325° |
| 2026-05-01 10:43 | -21.32145 | -64.87057 | 24770 ft | 401 kts | 325° |
| 2026-05-01 10:43 | -21.29785 | -64.88706 | 25125 ft | 409 kts | 325° |
| 2026-05-01 10:43 | -21.27386 | -64.90383 | 25474 ft | 413 kts | 325° |
| 2026-05-01 10:44 | -21.24965 | -64.92074 | 25816 ft | 418 kts | 325° |
| 2026-05-01 10:44 | -21.22507 | -64.93791 | 26318 ft | 422 kts | 325° |
| 2026-05-01 10:44 | -21.20047 | -64.95509 | 26951 ft | 423 kts | 325° |
| 2026-05-01 10:44 | -21.17567 | -64.97239 | 27507 ft | 426 kts | 325° |
| 2026-05-01 10:45 | -21.15076 | -64.98976 | 28085 ft | 428 kts | 325° |
| 2026-05-01 10:45 | -21.12579 | -65.00717 | 28650 ft | 430 kts | 325° |
| 2026-05-01 10:45 | -21.10065 | -65.02479 | 29194 ft | 432 kts | 325° |
| 2026-05-01 10:45 | -21.07555 | -65.04260 | 29721 ft | 434 kts | 324° |
| 2026-05-01 10:46 | -21.05029 | -65.06050 | 30231 ft | 436 kts | 325° |
| 2026-05-01 10:46 | -21.02515 | -65.07815 | 30664 ft | 438 kts | 325° |
| 2026-05-01 10:46 | -20.99963 | -65.09606 | 31110 ft | 439 kts | 325° |
| 2026-05-01 10:46 | -20.97421 | -65.11398 | 31740 ft | 436 kts | 325° |
| 2026-05-01 10:47 | -20.94903 | -65.13172 | 32356 ft | 432 kts | 325° |
| 2026-05-01 10:47 | -20.92399 | -65.14933 | 32915 ft | 429 kts | 325° |
| 2026-05-01 10:47 | -20.89903 | -65.16686 | 33516 ft | 427 kts | 324° |
| 2026-05-01 10:47 | -20.87429 | -65.18425 | 34111 ft | 424 kts | 324° |
| 2026-05-01 10:48 | -20.84969 | -65.20155 | 34619 ft | 422 kts | 324° |
| 2026-05-01 10:48 | -20.82524 | -65.21872 | 35154 ft | 419 kts | 324° |
| 2026-05-01 10:48 | -20.80092 | -65.23578 | 35709 ft | 416 kts | 324° |
| 2026-05-01 10:48 | -20.77680 | -65.25271 | 36347 ft | 413 kts | 324° |
| 2026-05-01 10:49 | -20.75287 | -65.26951 | 37019 ft | 410 kts | 324° |
| 2026-05-01 10:49 | -20.72910 | -65.28617 | 37657 ft | 406 kts | 324° |
| 2026-05-01 10:49 | -20.70586 | -65.30243 | 38142 ft | 405 kts | 324° |
| 2026-05-01 10:49 | -20.68190 | -65.31927 | 38118 ft | 417 kts | 324° |
| 2026-05-01 10:50 | -20.65733 | -65.33653 | 38131 ft | 428 kts | 324° |
| 2026-05-01 10:50 | -20.60641 | -65.37211 | 38148 ft | 445 kts | 324° |
| 2026-05-01 10:51 | -20.55401 | -65.40878 | 38148 ft | 455 kts | 324° |
| 2026-05-01 10:51 | -20.50077 | -65.44595 | 38154 ft | 459 kts | 324° |
| 2026-05-01 10:52 | -20.44726 | -65.48332 | 38150 ft | 460 kts | 324° |
| 2026-05-01 10:52 | -20.39368 | -65.52069 | 38151 ft | 461 kts | 324° |
| 2026-05-01 10:53 | -20.34002 | -65.55810 | 38148 ft | 460 kts | 324° |
| 2026-05-01 10:53 | -20.28685 | -65.59514 | 38154 ft | 460 kts | 324° |
| 2026-05-01 10:54 | -20.23333 | -65.63237 | 38150 ft | 458 kts | 324° |
| 2026-05-01 10:54 | -20.17987 | -65.66955 | 38159 ft | 459 kts | 324° |
| 2026-05-01 10:55 | -20.12629 | -65.70677 | 38156 ft | 458 kts | 324° |
| 2026-05-01 10:55 | -20.07296 | -65.74379 | 38161 ft | 457 kts | 324° |
| 2026-05-01 10:56 | -20.01973 | -65.78073 | 38176 ft | 456 kts | 324° |
| 2026-05-01 10:56 | -19.96669 | -65.81797 | 38184 ft | 456 kts | 324° |
| 2026-05-01 10:57 | -19.91395 | -65.85481 | 38185 ft | 457 kts | 324° |
| 2026-05-01 10:57 | -19.86081 | -65.89196 | 38202 ft | 459 kts | 324° |
| 2026-05-01 10:58 | -19.80740 | -65.92925 | 38211 ft | 459 kts | 325° |
| 2026-05-01 10:58 | -19.75391 | -65.96657 | 38222 ft | 460 kts | 325° |
| 2026-05-01 10:59 | -19.70028 | -66.00410 | 38229 ft | 461 kts | 324° |
| 2026-05-01 10:59 | -19.64702 | -66.04142 | 38249 ft | 462 kts | 325° |
| 2026-05-01 11:00 | -19.59327 | -66.07898 | 38249 ft | 462 kts | 325° |
| 2026-05-01 11:00 | -19.53962 | -66.11649 | 38262 ft | 462 kts | 325° |
| 2026-05-01 11:01 | -19.48593 | -66.15400 | 38266 ft | 462 kts | 325° |
| 2026-05-01 11:01 | -19.43223 | -66.19159 | 38279 ft | 462 kts | 325° |
| 2026-05-01 11:02 | -19.37861 | -66.22915 | 38285 ft | 462 kts | 324° |
| 2026-05-01 11:02 | -19.32531 | -66.26725 | 38300 ft | 462 kts | 324° |
| 2026-05-01 11:03 | -19.27221 | -66.30473 | 38299 ft | 461 kts | 324° |
| 2026-05-01 11:03 | -19.21879 | -66.34264 | 38296 ft | 462 kts | 324° |
| 2026-05-01 11:04 | -19.16525 | -66.38049 | 38300 ft | 463 kts | 324° |
| 2026-05-01 11:04 | -19.11167 | -66.41840 | 38307 ft | 462 kts | 324° |
| 2026-05-01 11:05 | -19.05840 | -66.45603 | 38312 ft | 463 kts | 324° |
| 2026-05-01 11:05 | -19.00480 | -66.49388 | 38320 ft | 464 kts | 324° |
| 2026-05-01 11:06 | -18.95096 | -66.53185 | 38330 ft | 465 kts | 325° |
| 2026-05-01 11:06 | -18.89720 | -66.56975 | 38339 ft | 465 kts | 325° |
| 2026-05-01 11:07 | -18.81649 | -66.62660 | 38333 ft | 465 kts | 325° |
| 2026-05-01 11:07 | -18.76266 | -66.66446 | 38333 ft | 465 kts | 325° |
| 2026-05-01 11:08 | -18.70880 | -66.70232 | 38335 ft | 466 kts | 325° |
| 2026-05-01 11:09 | -18.62783 | -66.75918 | 38337 ft | 466 kts | 325° |
| 2026-05-01 11:09 | -18.57436 | -66.79671 | 38331 ft | 464 kts | 325° |
| 2026-05-01 11:10 | -18.49348 | -66.85339 | 38340 ft | 466 kts | 325° |
| 2026-05-01 11:10 | -18.43950 | -66.89120 | 38335 ft | 466 kts | 325° |
| 2026-05-01 11:11 | -18.39454 | -66.92265 | 38342 ft | 467 kts | 325° |
| 2026-05-01 11:11 | -18.34042 | -66.96051 | 38350 ft | 467 kts | 325° |
| 2026-05-01 11:12 | -18.28629 | -66.99833 | 38367 ft | 467 kts | 325° |
| 2026-05-01 11:12 | -18.23212 | -67.03615 | 38423 ft | 467 kts | 325° |
| 2026-05-01 11:13 | -18.17792 | -67.07396 | 38486 ft | 467 kts | 325° |
| 2026-05-01 11:13 | -18.12377 | -67.11171 | 38531 ft | 467 kts | 325° |
| 2026-05-01 11:14 | -18.06953 | -67.14950 | 38565 ft | 468 kts | 325° |
| 2026-05-01 11:14 | -18.01522 | -67.18730 | 38576 ft | 468 kts | 325° |
| 2026-05-01 11:15 | -17.96122 | -67.22486 | 38556 ft | 468 kts | 325° |
| 2026-05-01 11:15 | -17.90690 | -67.26261 | 38518 ft | 469 kts | 325° |
| 2026-05-01 11:16 | -17.85247 | -67.30043 | 38462 ft | 469 kts | 325° |
| 2026-05-01 11:16 | -17.79826 | -67.33806 | 38408 ft | 466 kts | 325° |
| 2026-05-01 11:17 | -17.74398 | -67.37568 | 38338 ft | 468 kts | 325° |
| 2026-05-01 11:17 | -17.68945 | -67.41348 | 38330 ft | 470 kts | 325° |
| 2026-05-01 11:18 | -17.63493 | -67.45123 | 38326 ft | 470 kts | 325° |
| 2026-05-01 11:18 | -17.58032 | -67.48903 | 38315 ft | 470 kts | 326° |
| 2026-05-01 11:19 | -17.52571 | -67.52678 | 38318 ft | 470 kts | 326° |
| 2026-05-01 11:19 | -17.47112 | -67.56451 | 38314 ft | 469 kts | 326° |
| 2026-05-01 11:20 | -17.41676 | -67.60204 | 38310 ft | 471 kts | 326° |
| 2026-05-01 11:20 | -17.36202 | -67.63981 | 38297 ft | 472 kts | 326° |
| 2026-05-01 11:21 | -17.30724 | -67.67758 | 38291 ft | 472 kts | 326° |
| 2026-05-01 11:21 | -17.25242 | -67.71546 | 38278 ft | 470 kts | 325° |
| 2026-05-01 11:22 | -17.19831 | -67.75378 | 38270 ft | 469 kts | 325° |
| 2026-05-01 11:22 | -17.14426 | -67.79152 | 38171 ft | 471 kts | 326° |
| 2026-05-01 11:23 | -17.08955 | -67.82999 | 38242 ft | 476 kts | 326° |
| 2026-05-01 11:23 | -17.03426 | -67.86868 | 38234 ft | 478 kts | 326° |
| 2026-05-01 11:24 | -16.97889 | -67.90746 | 38238 ft | 479 kts | 326° |
| 2026-05-01 11:25 | -16.89598 | -67.96545 | 38233 ft | 478 kts | 326° |
| 2026-05-01 11:25 | -16.81347 | -68.02313 | 38258 ft | 477 kts | 326° |
| 2026-05-01 11:26 | -16.73046 | -68.08105 | 38426 ft | 479 kts | 326° |
| 2026-05-01 11:27 | -16.67492 | -68.11979 | 38545 ft | 480 kts | 326° |
| 2026-05-01 11:27 | -16.61927 | -68.15857 | 38659 ft | 481 kts | 326° |
| 2026-05-01 11:28 | -16.56359 | -68.19736 | 38696 ft | 481 kts | 326° |
| 2026-05-01 11:28 | -16.51325 | -68.24298 | 38683 ft | 482 kts | 313° |
| 2026-05-01 11:29 | -16.47538 | -68.30068 | 38660 ft | 484 kts | 301° |
| 2026-05-01 11:29 | -16.45889 | -68.33131 | 38616 ft | 485 kts | 302° |
| 2026-05-01 11:29 | -16.42575 | -68.39198 | 38504 ft | 485 kts | 302° |
| 2026-05-01 11:30 | -16.40914 | -68.42264 | 38440 ft | 485 kts | 301° |
| 2026-05-01 11:30 | -16.37593 | -68.48382 | 38331 ft | 486 kts | 302° |
| 2026-05-01 11:31 | -16.34259 | -68.54501 | 38243 ft | 485 kts | 302° |
| 2026-05-01 11:31 | -16.30933 | -68.60613 | 38240 ft | 485 kts | 302° |
| 2026-05-01 11:32 | -16.27597 | -68.66728 | 38233 ft | 486 kts | 302° |
| 2026-05-01 11:32 | -16.24281 | -68.72809 | 38229 ft | 486 kts | 302° |
| 2026-05-01 11:33 | -16.20940 | -68.78927 | 38228 ft | 486 kts | 302° |
| 2026-05-01 11:33 | -16.17599 | -68.85040 | 38232 ft | 486 kts | 302° |
| 2026-05-01 11:34 | -16.14252 | -68.91159 | 38221 ft | 486 kts | 302° |
| 2026-05-01 11:34 | -16.10904 | -68.97275 | 38214 ft | 487 kts | 302° |
| 2026-05-01 11:35 | -16.07553 | -69.03390 | 38210 ft | 487 kts | 302° |
| 2026-05-01 11:35 | -16.04198 | -69.09506 | 38206 ft | 487 kts | 302° |
| 2026-05-01 11:36 | -16.00840 | -69.15626 | 38209 ft | 488 kts | 302° |
| 2026-05-01 11:36 | -15.97476 | -69.21748 | 38209 ft | 488 kts | 302° |
| 2026-05-01 11:37 | -15.94109 | -69.27874 | 38210 ft | 488 kts | 302° |
| 2026-05-01 11:37 | -15.90777 | -69.33963 | 38208 ft | 488 kts | 301° |
| 2026-05-01 11:38 | -15.87475 | -69.40142 | 38212 ft | 489 kts | 301° |
| 2026-05-01 11:38 | -15.84133 | -69.46293 | 38213 ft | 489 kts | 301° |
| 2026-05-01 11:39 | -15.80816 | -69.52454 | 38223 ft | 489 kts | 301° |
| 2026-05-01 11:39 | -15.77477 | -69.58613 | 38228 ft | 489 kts | 301° |
| 2026-05-01 11:40 | -15.74144 | -69.64777 | 38232 ft | 489 kts | 301° |
| 2026-05-01 11:40 | -15.70808 | -69.70931 | 38242 ft | 489 kts | 302° |
| 2026-05-01 11:41 | -15.67491 | -69.77048 | 38251 ft | 489 kts | 301° |
| 2026-05-01 11:41 | -15.64156 | -69.83192 | 38243 ft | 489 kts | 302° |
| 2026-05-01 11:42 | -15.60819 | -69.89336 | 38244 ft | 489 kts | 302° |
| 2026-05-01 11:42 | -15.57474 | -69.95489 | 38253 ft | 489 kts | 302° |
| 2026-05-01 11:43 | -15.54128 | -70.01637 | 38265 ft | 489 kts | 302° |
| 2026-05-01 11:43 | -15.50784 | -70.07780 | 38268 ft | 489 kts | 302° |
| 2026-05-01 11:44 | -15.44948 | -70.16352 | 38260 ft | 484 kts | 316° |
| 2026-05-01 11:44 | -15.39746 | -70.20710 | 38285 ft | 480 kts | 323° |
| 2026-05-01 11:45 | -15.34483 | -70.24926 | 38283 ft | 480 kts | 323° |
| 2026-05-01 11:45 | -15.29173 | -70.29144 | 38283 ft | 480 kts | 323° |
| 2026-05-01 11:46 | -15.23887 | -70.33356 | 38286 ft | 478 kts | 323° |
| 2026-05-01 11:46 | -15.18622 | -70.37544 | 38285 ft | 474 kts | 323° |
| 2026-05-01 11:47 | -15.13367 | -70.41722 | 38297 ft | 476 kts | 323° |
| 2026-05-01 11:47 | -15.08159 | -70.45859 | 38292 ft | 476 kts | 323° |
| 2026-05-01 11:48 | -15.02888 | -70.50043 | 38296 ft | 481 kts | 323° |
| 2026-05-01 11:48 | -14.97582 | -70.54253 | 38309 ft | 483 kts | 323° |
| 2026-05-01 11:49 | -14.92254 | -70.58477 | 38306 ft | 484 kts | 323° |
| 2026-05-01 11:49 | -14.86912 | -70.62710 | 38305 ft | 485 kts | 323° |
| 2026-05-01 11:50 | -14.81566 | -70.66943 | 38303 ft | 485 kts | 323° |
| 2026-05-01 11:50 | -14.76252 | -70.71151 | 37931 ft | 466 kts | 323° |
| 2026-05-01 11:51 | -14.73755 | -70.73131 | 37323 ft | 447 kts | 323° |
| 2026-05-01 11:51 | -14.71296 | -70.75074 | 36738 ft | 436 kts | 323° |
| 2026-05-01 11:51 | -14.68910 | -70.76957 | 36177 ft | 434 kts | 323° |
| 2026-05-01 11:51 | -14.66530 | -70.78836 | 35617 ft | 434 kts | 323° |
| 2026-05-01 11:52 | -14.64119 | -70.80743 | 35046 ft | 435 kts | 323° |
| 2026-05-01 11:52 | -14.61735 | -70.82627 | 34472 ft | 436 kts | 323° |
| 2026-05-01 11:52 | -14.59303 | -70.84547 | 33860 ft | 439 kts | 323° |
| 2026-05-01 11:52 | -14.56861 | -70.86474 | 33282 ft | 442 kts | 323° |
| 2026-05-01 11:53 | -14.54430 | -70.88395 | 32699 ft | 445 kts | 323° |
| 2026-05-01 11:53 | -14.51953 | -70.90352 | 32107 ft | 448 kts | 323° |
| 2026-05-01 11:53 | -14.49492 | -70.92293 | 31520 ft | 451 kts | 323° |
| 2026-05-01 11:53 | -14.46981 | -70.94275 | 30915 ft | 457 kts | 323° |
| 2026-05-01 11:54 | -14.44452 | -70.96269 | 30302 ft | 453 kts | 323° |
| 2026-05-01 11:54 | -14.41984 | -70.98216 | 29679 ft | 450 kts | 323° |
| 2026-05-01 11:54 | -14.39495 | -71.00178 | 29093 ft | 447 kts | 323° |
| 2026-05-01 11:54 | -14.37044 | -71.02110 | 28508 ft | 444 kts | 323° |
| 2026-05-01 11:55 | -14.34612 | -71.04026 | 27930 ft | 442 kts | 323° |
| 2026-05-01 11:55 | -14.32165 | -71.05953 | 27343 ft | 440 kts | 323° |
| 2026-05-01 11:55 | -14.29742 | -71.07862 | 26764 ft | 437 kts | 323° |
| 2026-05-01 11:55 | -14.27351 | -71.09744 | 26198 ft | 435 kts | 323° |
| 2026-05-01 11:56 | -14.24937 | -71.11644 | 25625 ft | 433 kts | 323° |
| 2026-05-01 11:56 | -14.22564 | -71.13511 | 25061 ft | 431 kts | 323° |
| 2026-05-01 11:56 | -14.20195 | -71.15375 | 24497 ft | 419 kts | 323° |
| 2026-05-01 11:56 | -14.17948 | -71.17144 | 23956 ft | 400 kts | 323° |
| 2026-05-01 11:57 | -14.15778 | -71.18850 | 23397 ft | 382 kts | 323° |
| 2026-05-01 11:57 | -14.14394 | -71.19938 | 23058 ft | 371 kts | 323° |
| 2026-05-01 11:57 | -14.11712 | -71.22044 | 22029 ft | 363 kts | 323° |
| 2026-05-01 11:57 | -14.09731 | -71.23600 | 21398 ft | 355 kts | 323° |
| 2026-05-01 11:58 | -14.07774 | -71.25138 | 20930 ft | 349 kts | 323° |
| 2026-05-01 11:58 | -14.05855 | -71.26644 | 20731 ft | 346 kts | 323° |
| 2026-05-01 11:58 | -14.02056 | -71.29626 | 20742 ft | 347 kts | 323° |
| 2026-05-01 11:59 | -14.00139 | -71.31132 | 20740 ft | 344 kts | 323° |
| 2026-05-01 11:59 | -13.98253 | -71.32613 | 20734 ft | 345 kts | 323° |
| 2026-05-01 11:59 | -13.96338 | -71.34115 | 20738 ft | 344 kts | 323° |
| 2026-05-01 12:00 | -13.92544 | -71.37090 | 20731 ft | 344 kts | 323° |
| 2026-05-01 12:00 | -13.90624 | -71.38596 | 20712 ft | 345 kts | 323° |
| 2026-05-01 12:00 | -13.86832 | -71.41570 | 20097 ft | 343 kts | 323° |
| 2026-05-01 12:01 | -13.84933 | -71.43057 | 19749 ft | 341 kts | 323° |
| 2026-05-01 12:01 | -13.83050 | -71.44531 | 19402 ft | 340 kts | 323° |
| 2026-05-01 12:01 | -13.81182 | -71.45997 | 19050 ft | 339 kts | 323° |
| 2026-05-01 12:01 | -13.79302 | -71.47472 | 18704 ft | 339 kts | 323° |
| 2026-05-01 12:02 | -13.77418 | -71.48948 | 18315 ft | 337 kts | 323° |
| 2026-05-01 12:02 | -13.75575 | -71.50389 | 17962 ft | 335 kts | 323° |
| 2026-05-01 12:02 | -13.73787 | -71.51895 | 17597 ft | 334 kts | 317° |
| 2026-05-01 12:02 | -13.72265 | -71.53716 | 17247 ft | 332 kts | 307° |
| 2026-05-01 12:03 | -13.71093 | -71.55742 | 16901 ft | 332 kts | 296° |
| 2026-05-01 12:03 | -13.70251 | -71.57947 | 16579 ft | 330 kts | 289° |
| 2026-05-01 12:03 | -13.69490 | -71.60170 | 16248 ft | 329 kts | 290° |
| 2026-05-01 12:03 | -13.68711 | -71.62376 | 15931 ft | 327 kts | 290° |
| 2026-05-01 12:04 | -13.67777 | -71.64492 | 15603 ft | 324 kts | 298° |
| 2026-05-01 12:04 | -13.66621 | -71.66472 | 15302 ft | 322 kts | 304° |
| 2026-05-01 12:04 | -13.65264 | -71.68298 | 14997 ft | 320 kts | 310° |
| 2026-05-01 12:04 | -13.63750 | -71.69960 | 14693 ft | 314 kts | 314° |
| 2026-05-01 12:05 | -13.62262 | -71.71541 | 14395 ft | 301 kts | 314° |
| 2026-05-01 12:05 | -13.59796 | -71.74787 | 13793 ft | 274 kts | 299° |
| 2026-05-01 12:05 | -13.58998 | -71.76540 | 13538 ft | 267 kts | 291° |
| 2026-05-01 12:06 | -13.58315 | -71.78290 | 13291 ft | 258 kts | 292° |
| 2026-05-01 12:06 | -13.57646 | -71.79944 | 13089 ft | 243 kts | 292° |
| 2026-05-01 12:06 | -13.57020 | -71.81514 | 12878 ft | 233 kts | 292° |
| 2026-05-01 12:06 | -13.56536 | -71.83054 | 12578 ft | 215 kts | 288° |
| 2026-05-01 12:07 | -13.56050 | -71.84443 | 12264 ft | 202 kts | 291° |
| 2026-05-01 12:07 | -13.55561 | -71.85689 | 12018 ft | 173 kts | 296° |
| 2026-05-01 12:07 | -13.54998 | -71.86708 | 11792 ft | 157 kts | 302° |
| 2026-05-01 12:07 | -13.54451 | -71.87653 | 11589 ft | 154 kts | 295° |
| 2026-05-01 12:08 | -13.54124 | -71.88686 | 11406 ft | 151 kts | 282° |
| 2026-05-01 12:08 | -13.53990 | -71.89752 | 11241 ft | 148 kts | 276° |
| 2026-05-01 12:08 | -13.53883 | -71.90820 | 11042 ft | 150 kts | 276° |
| 2026-05-01 12:08 | -13.53782 | -71.91880 | 10834 ft | 147 kts | 276° |
| 2026-05-01 12:09 | -13.53677 | -71.92887 | 10740 ft | 130 kts | 276° |
| 2026-05-01 12:09 | -13.53604 | -71.93605 | 10772 ft | 62 kts | 275° |
| 2026-05-01 12:09 | -13.53574 | -71.93886 | 10784 ft | 26 kts | 276° |
| 2026-05-01 12:09 | -13.53596 | -71.94002 | 10790 ft | 13 kts | 246° |
| 2026-05-01 12:10 | -13.53622 | -71.94063 | 10796 ft | 6 kts | 245° |
| 2026-05-01 12:10 | -13.53656 | -71.94141 | 10798 ft | 10 kts | 247° |
| 2026-05-01 12:10 | -13.53676 | -71.94206 | 10802 ft | 7 kts | 272° |
| 2026-05-01 12:11 | -13.53686 | -71.94265 | 10804 ft | 5 kts | 214° |
| 2026-05-01 12:11 | -13.53710 | -71.94263 | 10804 ft | 7 kts | 148° |
| 2026-05-01 12:11 | -13.53728 | -71.94226 | 10802 ft | 2 kts | 112° |
| 2026-05-01 12:12 | -13.53733 | -71.94214 | 10803 ft | 0 kts | 112° |